Aérodrome :
LOGIN :

S'inscrire | Disclaimer

   EN    FR    IT 

 










Légende :    VFR   VFR Marginal   IFR   IFR Intensif   IFR Très Intensif
Visi : 
Plafond : 
>= 8 km
>= 3000ft
5 à 8 km
1000 à 3000 ft
1500m à 5 km
500 à 1000 ft
800 à 1500m
200 à 500 ft
< 800m
< 200 ft
Symboles :   Orages  Brouillard  Fortes neiges  Fortes précipitations  Vent > 20 kt
SIGMETs :   Divers  Orages  Givrage  Turbulence  Onde Orograph.  Cendres Volcan.






- Altitude de l'aérodrome : 37 ft
- Code IATA : FRO


ENFL - Florø

DERNIER METAR :
  • 222250Z AUTO 14009KT 9999NDV OVC041/// 08/04 Q1011

METARs EXPIRÉS :
  • 222220Z 14009KT 9999 -RA FEW025 SCT035 OVC050 08/03 Q1011
  • 222150Z 14017KT 9999 -RA FEW025 SCT035 BKN050 09/03 Q1011
  • 222120Z 13009KT 9999 -RA FEW025 BKN045 09/02 Q1011
  • 222050Z 13011KT 9999 -RA FEW035 SCT045 BKN080 09/02 Q1011

Prévision TAF périmée.



MET'MAP, la Météo Aéronautique d'un coup d'oeil ! - Copyright ORBIFLY Décembre 2007 - Disclaimer

ORBIFLY MET'MAP TEAM :

Programmation & Développement : Alexandra Zaïnal
Conception & Développement : Baudouin d'Aumeries
Co-Programmation & Développement : Marc-Olivier Méhu
Soutien technique & logistique : Manuel Goepfert

Contact : metmap@orbifly.com




SOURCES & CREDITS :

   NOAA